Time;durP1;ratioP1;P1;durP2;ratioP2;P2;SDS_P1;SDS_P2;PMS_P1;PMS_P2;Temp;Humidity;BMP_temperature;BMP_pressure;BME280_temperature;BME280_humidity;BME280_pressure;Samples;Min_cycle;Max_cycle;Signal;HPM_P1;HPM_P2
2022/06/01 00:00:59;;;;;;;45.13;38.80;;;;;;;;;;7402395;19;20021;-66
2022/06/01 00:03:31;;;;;;;44.92;39.05;;;;;;;;;;7404388;19;20025;-65
2022/06/01 00:06:00;;;;;;;44.33;37.70;;;;;;;;;;7405737;19;20066;-64
2022/06/01 00:08:31;;;;;;;41.65;36.47;;;;;;;;;;7396916;19;20011;-63
2022/06/01 00:10:59;;;;;;;41.40;36.22;;;;;;;;;;7398064;19;20022;-64
2022/06/01 00:13:28;;;;;;;42.22;36.40;;;;;;;;;;7396695;19;20428;-64
2022/06/01 00:15:57;;;;;;;42.97;38.28;;;;;;;;;;7395471;19;20493;-61
2022/06/01 00:18:26;;;;;;;40.83;35.83;;;;;;;;;;7397365;19;20491;-64
2022/06/01 00:20:55;;;;;;;53.17;45.10;;;;;;;;;;7396937;19;20492;-64
2022/06/01 00:23:24;;;;;;;73.88;62.13;;;;;;;;;;7401527;19;20010;-65
2022/06/01 00:25:55;;;;;;;98.82;82.78;;;;;;;;;;7395614;19;20305;-64
2022/06/01 00:28:24;;;;;;;130.32;107.88;;;;;;;;;;7397585;19;20063;-64
2022/06/01 00:30:52;;;;;;;125.35;104.15;;;;;;;;;;7397589;19;20021;-63
2022/06/01 00:33:21;;;;;;;113.13;89.93;;;;;;;;;;7396227;19;20364;-65
2022/06/01 00:35:49;;;;;;;91.35;73.82;;;;;;;;;;7394763;19;20019;-63
2022/06/01 00:38:18;;;;;;;92.90;76.03;;;;;;;;;;7397216;19;20427;-64
2022/06/01 00:40:48;;;;;;;89.18;72.13;;;;;;;;;;7394447;19;20014;-64
2022/06/01 00:43:23;;;;;;;72.97;58.58;;;;;;;;;;7396661;19;20015;-64
2022/06/01 00:45:52;;;;;;;56.58;48.38;;;;;;;;;;7395158;19;20539;-63
2022/06/01 00:48:22;;;;;;;55.83;47.47;;;;;;;;;;7397554;19;20059;-64
2022/06/01 00:50:50;;;;;;;51.83;43.45;;;;;;;;;;7396472;19;20086;-65
2022/06/01 00:53:20;;;;;;;45.60;39.40;;;;;;;;;;7397623;19;20074;-65
2022/06/01 00:55:49;;;;;;;42.75;37.50;;;;;;;;;;7400690;19;20534;-66
2022/06/01 00:58:19;;;;;;;45.33;38.95;;;;;;;;;;7399507;19;20011;-65
2022/06/01 01:00:51;;;;;;;43.97;37.95;;;;;;;;;;7400078;19;20014;-66
2022/06/01 01:03:21;;;;;;;45.17;38.53;;;;;;;;;;7396711;19;20107;-65
2022/06/01 01:05:53;;;;;;;42.70;37.92;;;;;;;;;;7393855;19;20037;-65
2022/06/01 01:08:21;;;;;;;35.72;30.33;;;;;;;;;;7395024;19;20014;-63
2022/06/01 01:10:50;;;;;;;46.22;39.63;;;;;;;;;;7397788;19;20022;-65
2022/06/01 01:13:18;;;;;;;51.00;42.50;;;;;;;;;;7395499;19;20048;-67
2022/06/01 01:15:52;;;;;;;48.72;40.60;;;;;;;;;;7391843;19;20083;-67
2022/06/01 01:18:24;;;;;;;46.90;41.15;;;;;;;;;;7395755;19;20019;-66
2022/06/01 01:21:07;;;;;;;50.05;42.72;;;;;;;;;;7395319;19;20011;-66
2022/06/01 01:23:42;;;;;;;54.83;45.28;;;;;;;;;;7393952;19;20025;-66
2022/06/01 01:26:14;;;;;;;53.13;45.70;;;;;;;;;;7393507;19;20018;-66
2022/06/01 01:28:43;;;;;;;53.53;45.63;;;;;;;;;;7395359;19;20014;-65
2022/06/01 01:31:16;;;;;;;59.47;47.88;;;;;;;;;;7395148;19;20021;-67
2022/06/01 01:33:45;;;;;;;66.95;51.10;;;;;;;;;;7395263;19;20350;-66
2022/06/01 01:36:15;;;;;;;70.90;52.88;;;;;;;;;;7392243;19;20025;-67
2022/06/01 01:38:46;;;;;;;72.70;54.22;;;;;;;;;;7393739;19;20015;-66
2022/06/01 01:41:20;;;;;;;70.72;52.65;;;;;;;;;;7394196;19;20415;-66
2022/06/01 01:43:52;;;;;;;74.15;53.13;;;;;;;;;;7397587;19;20114;-66
2022/06/01 01:46:20;;;;;;;77.05;55.47;;;;;;;;;;7391259;19;20123;-66
2022/06/01 01:48:49;;;;;;;85.32;57.75;;;;;;;;;;7394181;19;20010;-66
2022/06/01 01:51:21;;;;;;;85.78;61.03;;;;;;;;;;7395232;19;20034;-64
2022/06/01 01:53:50;;;;;;;81.93;59.35;;;;;;;;;;7393361;19;20018;-66
2022/06/01 01:56:32;;;;;;;82.43;57.10;;;;;;;;;;7392306;19;20515;-66
2022/06/01 01:59:06;;;;;;;64.97;49.10;;;;;;;;;;7395619;19;20021;-63
2022/06/01 02:01:40;;;;;;;61.10;45.67;;;;;;;;;;7393477;19;20024;-66
2022/06/01 02:06:03;;;;;;;64.35;48.67;;;;;;;;;;7393130;19;20019;-67
2022/06/01 02:07:03;;;;;;;67.53;50.10;;;;;;;;;;7393544;19;20448;-67
2022/06/01 02:12:41;;;;;;;61.08;47.42;;;;;;;;;;7394381;19;20017;-66
2022/06/01 02:15:06;;;;;;;66.47;49.80;;;;;;;;;;7394128;19;20010;-66
2022/06/01 02:17:37;;;;;;;69.20;49.22;;;;;;;;;;7395582;19;20007;-64
2022/06/01 02:20:10;;;;;;;65.32;48.40;;;;;;;;;;7395604;19;20018;-67
2022/06/01 02:22:39;;;;;;;54.00;40.78;;;;;;;;;;7401358;19;20014;-66
2022/06/01 02:25:09;;;;;;;44.65;35.45;;;;;;;;;;7403046;19;20387;-66
2022/06/01 02:27:41;;;;;;;46.50;35.80;;;;;;;;;;7405714;19;20015;-67
2022/06/01 02:30:12;;;;;;;51.30;38.45;;;;;;;;;;7403636;19;20014;-67
2022/06/01 02:32:41;;;;;;;52.83;38.42;;;;;;;;;;7409978;19;20022;-66
2022/06/01 02:35:11;;;;;;;53.25;38.55;;;;;;;;;;7402887;19;20353;-66
2022/06/01 02:37:41;;;;;;;52.65;38.67;;;;;;;;;;7399116;19;20010;-65
2022/06/01 02:40:13;;;;;;;48.15;35.55;;;;;;;;;;7394828;19;20503;-67
2022/06/01 02:42:49;;;;;;;39.28;29.17;;;;;;;;;;7393705;19;20085;-65
2022/06/01 02:45:17;;;;;;;36.17;28.38;;;;;;;;;;7397636;19;20048;-66
2022/06/01 02:47:47;;;;;;;32.53;24.83;;;;;;;;;;7396693;19;20057;-68
2022/06/01 02:50:17;;;;;;;32.30;23.48;;;;;;;;;;7394322;19;20425;-66
2022/06/01 02:52:46;;;;;;;34.50;24.88;;;;;;;;;;7392772;19;20010;-66
2022/06/01 02:55:15;;;;;;;32.95;25.70;;;;;;;;;;7390631;19;20014;-66
2022/06/01 02:57:45;;;;;;;32.58;24.73;;;;;;;;;;7393667;19;20025;-65
2022/06/01 03:00:18;;;;;;;34.03;24.15;;;;;;;;;;7390835;19;20011;-66
2022/06/01 03:02:47;;;;;;;31.45;23.92;;;;;;;;;;7392213;19;20025;-65
2022/06/01 03:05:17;;;;;;;31.30;24.55;;;;;;;;;;7394233;19;20337;-66
2022/06/01 03:07:46;;;;;;;35.22;26.42;;;;;;;;;;7392028;19;20055;-65
2022/06/01 03:10:14;;;;;;;30.95;23.98;;;;;;;;;;7390417;19;20006;-67
2022/06/01 03:12:43;;;;;;;32.92;25.60;;;;;;;;;;7392431;19;20015;-65
2022/06/01 03:15:13;;;;;;;30.33;24.35;;;;;;;;;;7389765;19;20444;-63
2022/06/01 03:17:45;;;;;;;30.50;24.05;;;;;;;;;;7392154;19;20014;-63
2022/06/01 03:20:15;;;;;;;32.50;25.38;;;;;;;;;;7392240;19;20033;-66
2022/06/01 03:22:43;;;;;;;29.00;24.92;;;;;;;;;;7391434;19;20015;-66
2022/06/01 03:25:13;;;;;;;34.72;27.15;;;;;;;;;;7389429;19;20479;-66
2022/06/01 03:27:42;;;;;;;35.55;27.05;;;;;;;;;;7391936;19;20011;-66
2022/06/01 03:30:13;;;;;;;32.78;26.17;;;;;;;;;;7391977;19;20017;-64
2022/06/01 03:32:43;;;;;;;31.48;26.08;;;;;;;;;;7391485;19;20019;-65
2022/06/01 03:35:15;;;;;;;35.90;28.20;;;;;;;;;;7389546;19;20010;-65
2022/06/01 03:37:43;;;;;;;40.58;30.45;;;;;;;;;;7395838;19;20426;-66
2022/06/01 03:40:13;;;;;;;38.40;29.30;;;;;;;;;;7391179;19;20344;-64
2022/06/01 03:42:41;;;;;;;40.25;30.88;;;;;;;;;;7391787;19;20018;-63
2022/06/01 03:47:52;;;;;;;39.90;30.27;;;;;;;;;;7398693;19;20010;-66
2022/06/01 03:50:23;;;;;;;42.08;31.27;;;;;;;;;;7397640;19;20035;-66
2022/06/01 03:52:52;;;;;;;43.60;32.33;;;;;;;;;;7399524;19;20011;-66
2022/06/01 03:55:21;;;;;;;44.20;32.70;;;;;;;;;;7395470;19;20039;-65
2022/06/01 03:57:50;;;;;;;43.38;32.92;;;;;;;;;;7398161;19;20013;-65
2022/06/01 04:00:21;;;;;;;40.55;30.98;;;;;;;;;;7395924;19;20057;-66
2022/06/01 04:02:49;;;;;;;44.95;32.50;;;;;;;;;;7399014;19;20126;-66
2022/06/01 04:05:18;;;;;;;39.38;29.40;;;;;;;;;;7396046;19;20014;-65
2022/06/01 04:07:52;;;;;;;41.67;31.63;;;;;;;;;;7395249;19;20078;-67
2022/06/01 04:10:21;;;;;;;35.20;27.80;;;;;;;;;;7401950;19;20014;-65
2022/06/01 04:12:49;;;;;;;44.88;31.63;;;;;;;;;;7397367;19;20010;-66
2022/06/01 04:15:18;;;;;;;38.40;27.67;;;;;;;;;;7395644;19;20024;-67
2022/06/01 04:17:47;;;;;;;29.70;24.95;;;;;;;;;;7397464;19;20018;-67
2022/06/01 04:20:16;;;;;;;34.65;26.88;;;;;;;;;;7396804;19;20021;-67
2022/06/01 04:22:46;;;;;;;36.80;29.35;;;;;;;;;;7398002;19;20014;-67
2022/06/01 04:25:18;;;;;;;43.25;31.48;;;;;;;;;;7397325;19;20006;-65
2022/06/01 04:27:47;;;;;;;;;;;;;;;;;;7397821;19;20476;-66
2022/06/01 04:30:16;;;;;;;42.83;31.50;;;;;;;;;;7397500;19;20023;-66
2022/06/01 04:32:45;;;;;;;46.80;34.08;;;;;;;;;;7396698;19;20019;-64
2022/06/01 04:35:14;;;;;;;47.78;35.13;;;;;;;;;;7395752;19;20015;-66
2022/06/01 04:37:42;;;;;;;47.58;35.90;;;;;;;;;;7397385;19;20015;-67
2022/06/01 04:40:12;;;;;;;50.53;36.97;;;;;;;;;;7395515;19;20077;-67
2022/06/01 04:42:44;;;;;;;50.25;38.10;;;;;;;;;;7401548;19;20007;-62
2022/06/01 04:45:13;;;;;;;55.10;42.28;;;;;;;;;;7395199;19;20014;-64
2022/06/01 04:47:42;;;;;;;60.25;44.83;;;;;;;;;;7397054;19;20018;-64
2022/06/01 04:50:12;;;;;;;62.90;45.88;;;;;;;;;;7394563;19;20017;-63
2022/06/01 04:52:40;;;;;;;63.05;46.95;;;;;;;;;;7396330;19;20046;-65
2022/06/01 04:55:09;;;;;;;60.08;44.85;;;;;;;;;;7393206;19;20052;-65
2022/06/01 04:57:39;;;;;;;72.13;47.88;;;;;;;;;;7398203;19;20015;-64
2022/06/01 05:00:11;;;;;;;67.07;48.17;;;;;;;;;;7395731;19;20338;-65
2022/06/01 05:02:40;;;;;;;64.28;47.90;;;;;;;;;;7394823;19;20052;-63
2022/06/01 05:05:09;;;;;;;64.13;48.15;;;;;;;;;;7394585;19;20078;-66
2022/06/01 05:07:37;;;;;;;66.57;49.70;;;;;;;;;;7396307;19;20011;-65
2022/06/01 05:10:06;;;;;;;63.97;47.78;;;;;;;;;;7396709;19;20014;-63
2022/06/01 05:12:35;;;;;;;68.93;48.08;;;;;;;;;;7396172;19;20527;-66
2022/06/01 05:15:03;;;;;;;66.97;48.50;;;;;;;;;;7394867;19;20014;-66
2022/06/01 05:17:35;;;;;;;67.97;49.17;;;;;;;;;;7398138;19;20007;-65
2022/06/01 05:20:04;;;;;;;59.28;44.58;;;;;;;;;;7396328;19;20011;-65
2022/06/01 05:22:32;;;;;;;60.72;45.63;;;;;;;;;;7395723;19;20111;-66
2022/06/01 05:25:01;;;;;;;58.50;45.50;;;;;;;;;;7393811;19;20018;-66
2022/06/01 05:27:30;;;;;;;54.40;42.25;;;;;;;;;;7395449;19;20015;-65
2022/06/01 05:29:59;;;;;;;62.28;44.70;;;;;;;;;;7397693;19;20356;-67
2022/06/01 05:32:27;;;;;;;62.30;45.47;;;;;;;;;;7394973;19;20021;-66
2022/06/01 05:34:59;;;;;;;55.78;42.50;;;;;;;;;;7393709;19;20030;-63
2022/06/01 05:37:28;;;;;;;56.38;41.08;;;;;;;;;;7395392;19;20018;-64
2022/06/01 05:39:56;;;;;;;52.90;39.70;;;;;;;;;;7395006;19;20509;-64
2022/06/01 05:42:25;;;;;;;54.10;41.60;;;;;;;;;;7394399;19;20018;-67
2022/06/01 05:44:55;;;;;;;51.28;39.67;;;;;;;;;;7393856;19;20018;-66
2022/06/01 05:47:23;;;;;;;54.75;41.25;;;;;;;;;;7394079;19;20111;-66
2022/06/01 05:49:51;;;;;;;56.72;41.60;;;;;;;;;;7397504;19;20014;-66
2022/06/01 05:52:23;;;;;;;53.53;40.80;;;;;;;;;;7393870;19;20019;-65
2022/06/01 05:54:51;;;;;;;48.72;37.97;;;;;;;;;;7392091;19;20502;-66
2022/06/01 05:57:20;;;;;;;45.45;36.75;;;;;;;;;;7393132;19;20014;-65
2022/06/01 05:59:48;;;;;;;52.58;40.40;;;;;;;;;;7394660;19;20033;-63
2022/06/01 06:02:17;;;;;;;47.47;37.90;;;;;;;;;;7394939;19;20010;-65
2022/06/01 06:04:45;;;;;;;47.17;36.97;;;;;;;;;;7393006;19;20021;-64
2022/06/01 06:07:14;;;;;;;41.53;32.72;;;;;;;;;;7393046;19;20082;-66
2022/06/01 06:09:45;;;;;;;45.80;36.22;;;;;;;;;;7394423;19;20514;-64
2022/06/01 06:12:13;;;;;;;41.67;33.60;;;;;;;;;;7395046;19;20035;-65
2022/06/01 06:14:42;;;;;;;38.72;30.00;;;;;;;;;;7394227;19;20014;-65
2022/06/01 06:17:11;;;;;;;41.45;31.83;;;;;;;;;;7396048;19;20014;-66
2022/06/01 06:19:39;;;;;;;30.15;23.92;;;;;;;;;;7396069;19;20044;-66
2022/06/01 06:22:09;;;;;;;27.02;22.42;;;;;;;;;;7393502;19;20017;-66
2022/06/01 06:24:38;;;;;;;32.03;25.40;;;;;;;;;;7394743;19;20021;-66
2022/06/01 06:27:09;;;;;;;28.58;22.33;;;;;;;;;;7396314;19;20021;-66
2022/06/01 06:29:37;;;;;;;28.25;22.50;;;;;;;;;;7395510;19;20024;-63
2022/06/01 06:32:06;;;;;;;25.25;22.25;;;;;;;;;;7396541;19;20014;-64
2022/06/01 06:34:35;;;;;;;29.17;23.65;;;;;;;;;;7397509;19;20024;-66
2022/06/01 06:37:03;;;;;;;25.20;21.50;;;;;;;;;;7394506;19;20021;-65
2022/06/01 06:39:32;;;;;;;26.73;22.65;;;;;;;;;;7396043;19;20010;-63
2022/06/01 06:42:00;;;;;;;25.77;22.85;;;;;;;;;;7394467;19;20048;-65
2022/06/01 06:44:33;;;;;;;24.50;21.60;;;;;;;;;;7395320;19;20018;-65
2022/06/01 06:47:01;;;;;;;29.75;23.73;;;;;;;;;;7394198;19;20014;-65
2022/06/01 06:49:30;;;;;;;25.50;22.65;;;;;;;;;;7393287;19;20051;-66
2022/06/01 06:51:58;;;;;;;28.33;24.02;;;;;;;;;;7394859;19;20050;-63
2022/06/01 06:54:27;;;;;;;27.20;23.90;;;;;;;;;;7392314;19;20018;-65
2022/06/01 06:56:55;;;;;;;28.55;24.90;;;;;;;;;;7394313;19;20019;-66
2022/06/01 06:59:24;;;;;;;28.30;25.10;;;;;;;;;;7394756;19;20006;-65
2022/06/01 07:01:55;;;;;;;26.60;23.58;;;;;;;;;;7393359;19;20244;-67
2022/06/01 07:04:24;;;;;;;26.55;23.75;;;;;;;;;;7392721;19;20032;-64
2022/06/01 07:06:52;;;;;;;26.00;23.20;;;;;;;;;;7392556;19;20018;-65
2022/06/01 07:09:21;;;;;;;29.88;23.83;;;;;;;;;;7393117;19;20015;-63
2022/06/01 07:11:49;;;;;;;29.05;23.02;;;;;;;;;;7392334;19;20014;-65
2022/06/01 07:14:18;;;;;;;24.95;20.65;;;;;;;;;;7391755;19;20014;-65
2022/06/01 07:16:46;;;;;;;22.05;19.48;;;;;;;;;;7394392;19;20010;-65
2022/06/01 07:19:17;;;;;;;22.95;19.63;;;;;;;;;;7404761;19;20487;-63
2022/06/01 07:21:46;;;;;;;22.80;19.00;;;;;;;;;;7399176;19;20021;-65
2022/06/01 07:24:14;;;;;;;24.30;19.58;;;;;;;;;;7396761;19;20030;-67
2022/06/01 07:26:44;;;;;;;19.98;17.85;;;;;;;;;;7399500;19;20032;-67
2022/06/01 07:29:15;;;;;;;22.35;19.38;;;;;;;;;;7400320;19;20026;-66
2022/06/01 07:31:43;;;;;;;17.73;14.15;;;;;;;;;;7401048;19;20467;-67
2022/06/01 07:34:12;;;;;;;15.23;12.98;;;;;;;;;;7400480;19;20026;-67
2022/06/01 07:36:43;;;;;;;16.58;12.80;;;;;;;;;;7400949;19;20628;-66
2022/06/01 07:44:34;;;;;;;14.32;12.90;;;;;;;;;;7399126;19;20017;-66
2022/06/01 07:47:02;;;;;;;17.77;15.43;;;;;;;;;;7399612;19;20344;-65
2022/06/01 07:49:31;;;;;;;14.15;12.65;;;;;;;;;;7402998;19;20041;-67
2022/06/01 07:52:02;;;;;;;16.63;13.43;;;;;;;;;;7399901;19;20027;-67
2022/06/01 07:54:31;;;;;;;14.90;11.02;;;;;;;;;;7398804;19;20034;-67
2022/06/01 07:56:59;;;;;;;9.95;8.93;;;;;;;;;;7400142;19;20407;-67
2022/06/01 07:59:28;;;;;;;12.75;9.32;;;;;;;;;;7400326;19;20086;-66
2022/06/01 08:01:56;;;;;;;12.85;11.55;;;;;;;;;;7402172;19;20006;-67
2022/06/01 08:04:25;;;;;;;11.25;9.35;;;;;;;;;;7398550;19;20802;-68
2022/06/01 08:06:53;;;;;;;14.38;11.68;;;;;;;;;;7401953;19;20015;-68
2022/06/01 08:09:24;;;;;;;11.95;10.48;;;;;;;;;;7400154;19;20023;-67
2022/06/01 08:14:34;;;;;;;12.00;9.77;;;;;;;;;;7398610;19;20019;-68
2022/06/01 08:17:03;;;;;;;11.27;9.75;;;;;;;;;;7399573;19;20476;-67
2022/06/01 08:19:31;;;;;;;12.45;11.15;;;;;;;;;;7399747;19;20022;-67
2022/06/01 08:22:00;;;;;;;13.27;11.18;;;;;;;;;;7397362;19;20367;-67
2022/06/01 08:24:32;;;;;;;15.60;12.90;;;;;;;;;;7401737;19;20504;-66
2022/06/01 08:27:01;;;;;;;17.80;12.52;;;;;;;;;;7399323;19;20006;-67
2022/06/01 08:29:30;;;;;;;14.35;11.85;;;;;;;;;;7397851;19;20019;-67
2022/06/01 08:31:58;;;;;;;12.05;9.70;;;;;;;;;;7398181;19;20029;-67
2022/06/01 08:34:27;;;;;;;9.35;7.88;;;;;;;;;;7395372;19;20356;-66
2022/06/01 08:36:55;;;;;;;9.30;7.50;;;;;;;;;;7397296;19;20098;-66
2022/06/01 08:39:23;;;;;;;9.65;8.18;;;;;;;;;;7398927;19;20499;-67
2022/06/01 08:41:55;;;;;;;11.18;9.98;;;;;;;;;;7396006;19;20006;-66
2022/06/01 08:44:25;;;;;;;9.60;8.63;;;;;;;;;;7397459;19;20086;-67
2022/06/01 08:46:54;;;;;;;11.93;9.00;;;;;;;;;;7399685;19;20504;-65
2022/06/01 08:49:25;;;;;;;10.27;9.27;;;;;;;;;;7397895;19;20011;-64
2022/06/01 08:51:53;;;;;;;9.40;6.95;;;;;;;;;;7397772;19;20018;-67
2022/06/01 08:54:22;;;;;;;10.52;8.27;;;;;;;;;;7397220;19;20010;-64
2022/06/01 08:56:51;;;;;;;9.73;7.80;;;;;;;;;;7343455;19;1005182;-66
2022/06/01 08:59:29;;;;;;;10.23;8.40;;;;;;;;;;7397061;19;20018;-63
2022/06/01 09:02:05;;;;;;;10.25;9.20;;;;;;;;;;7395533;19;20015;-64
2022/06/01 09:04:38;;;;;;;9.48;8.43;;;;;;;;;;7395725;19;20029;-65
2022/06/01 09:07:13;;;;;;;7.70;6.90;;;;;;;;;;7397356;19;20015;-60
2022/06/01 09:09:46;;;;;;;8.82;7.93;;;;;;;;;;7396000;19;20017;-62
2022/06/01 09:12:14;;;;;;;;;;;;;;;;;;7399020;19;20029;-66
2022/06/01 09:14:47;;;;;;;7.95;6.72;;;;;;;;;;7395481;19;19915;-66
2022/06/01 09:17:15;;;;;;;;;;;;;;;;;;7397552;19;20018;-66
2022/06/01 09:25:08;;;;;;;6.93;5.90;;;;;;;;;;7394037;19;20042;-61
2022/06/01 09:27:38;;;;;;;8.35;7.10;;;;;;;;;;7395779;19;20014;-67
2022/06/01 09:30:22;;;;;;;9.85;6.43;;;;;;;;;;7396281;19;20010;-67
2022/06/01 09:33:05;;;;;;;14.35;8.55;;;;;;;;;;7395568;19;20486;-68
2022/06/01 09:35:36;;;;;;;11.80;7.38;;;;;;;;;;7393263;19;20014;-67
2022/06/01 09:38:05;;;;;;;9.13;6.78;;;;;;;;;;7394303;19;20054;-66
2022/06/01 09:40:35;;;;;;;8.77;7.50;;;;;;;;;;7387917;19;20480;-66
2022/06/01 09:43:04;;;;;;;9.10;7.47;;;;;;;;;;7388569;19;20033;-66
2022/06/01 09:45:53;;;;;;;7.75;6.95;;;;;;;;;;7390802;19;20021;-59
2022/06/01 09:48:27;;;;;;;11.50;8.07;;;;;;;;;;7391166;19;20460;-53
2022/06/01 09:51:08;;;;;;;10.45;9.43;;;;;;;;;;7391364;19;20475;-54
2022/06/01 09:53:38;;;;;;;10.38;9.25;;;;;;;;;;7393991;19;20011;-39
2022/06/01 09:56:07;;;;;;;9.60;8.27;;;;;;;;;;7395701;19;20018;-35
2022/06/01 10:06:50;;;;;;;8.25;7.25;;;;;;;;;;7398669;19;20103;-39
2022/06/01 10:09:22;;;;;;;9.20;7.90;;;;;;;;;;7398730;19;20057;-38
2022/06/01 10:11:51;;;;;;;10.52;9.05;;;;;;;;;;7399576;19;20414;-37
2022/06/01 10:17:16;;;;;;;8.10;6.85;;;;;;;;;;7354600;19;20049;-38
2022/06/01 10:19:47;;;;;;;6.13;5.63;;;;;;;;;;7402648;19;20098;-45
2022/06/01 10:22:20;;;;;;;6.15;5.65;;;;;;;;;;7387158;19;20025;-45
2022/06/01 10:24:52;;;;;;;7.53;6.78;;;;;;;;;;7400688;19;20019;-45
2022/06/01 10:27:23;;;;;;;9.63;8.25;;;;;;;;;;7395255;19;20042;-45
2022/06/01 10:29:53;;;;;;;7.60;6.80;;;;;;;;;;7396674;19;20006;-45
2022/06/01 10:32:28;;;;;;;10.52;7.55;;;;;;;;;;7395671;19;20028;-44
2022/06/01 10:35:10;;;;;;;7.72;6.70;;;;;;;;;;7395801;19;20367;-44
2022/06/01 10:37:42;;;;;;;7.38;6.63;;;;;;;;;;7393715;19;20022;-44
2022/06/01 10:40:15;;;;;;;7.00;6.30;;;;;;;;;;7396987;19;20038;-45
2022/06/01 10:45:26;;;;;;;;;;;;;;;;;;7399782;19;20015;-44
2022/06/01 10:48:03;;;;;;;6.63;5.95;;;;;;;;;;7395614;19;19939;-44
2022/06/01 10:50:33;;;;;;;5.97;5.40;;;;;;;;;;7395671;19;20015;-44
2022/06/01 10:53:04;;;;;;;7.07;6.28;;;;;;;;;;7393951;19;20007;-44
2022/06/01 10:55:34;;;;;;;6.82;6.22;;;;;;;;;;7394596;19;20015;-44
2022/06/01 10:58:03;;;;;;;8.70;7.45;;;;;;;;;;7394542;19;20025;-44
2022/06/01 11:00:34;;;;;;;9.32;8.32;;;;;;;;;;7395028;19;20010;-44
2022/06/01 11:03:21;;;;;;;9.82;8.35;;;;;;;;;;7393805;19;20006;-44
2022/06/01 11:05:53;;;;;;;9.70;8.55;;;;;;;;;;7394456;19;20021;-44
2022/06/01 11:08:26;;;;;;;9.80;8.47;;;;;;;;;;7394852;19;20123;-43
2022/06/01 11:11:00;;;;;;;9.07;7.22;;;;;;;;;;7395282;19;20227;-43
2022/06/01 11:13:36;;;;;;;9.57;7.97;;;;;;;;;;7398607;19;20015;-45
2022/06/01 11:16:10;;;;;;;6.90;5.43;;;;;;;;;;7393536;19;20084;-44
2022/06/01 11:18:45;;;;;;;6.05;4.88;;;;;;;;;;7395055;19;20507;-44
2022/06/01 11:21:17;;;;;;;6.68;4.28;;;;;;;;;;7394027;19;20022;-45
2022/06/01 11:23:50;;;;;;;5.57;3.28;;;;;;;;;;7393077;19;20015;-46
2022/06/01 11:26:28;;;;;;;5.05;2.58;;;;;;;;;;7394382;19;20017;-47
2022/06/01 11:29:07;;;;;;;4.15;2.40;;;;;;;;;;7394039;19;20010;-45
2022/06/01 11:31:36;;;;;;;5.55;3.10;;;;;;;;;;7392946;19;20094;-45
2022/06/01 11:34:10;;;;;;;5.38;3.40;;;;;;;;;;7392709;19;20513;-45
2022/06/01 11:36:42;;;;;;;8.68;4.10;;;;;;;;;;7390861;19;20086;-45
2022/06/01 11:39:14;;;;;;;6.30;5.22;;;;;;;;;;7394918;19;20098;-45
2022/06/01 11:41:43;;;;;;;;;;;;;;;;;;7393546;19;20019;-44
2022/06/01 11:44:15;;;;;;;7.97;6.90;;;;;;;;;;7390356;19;19914;-46
2022/06/01 11:46:45;;;;;;;9.88;7.72;;;;;;;;;;7391682;19;20336;-44
2022/06/01 11:49:26;;;;;;;8.13;7.32;;;;;;;;;;7393092;19;20340;-44
2022/06/01 11:51:57;;;;;;;10.13;9.02;;;;;;;;;;7393921;19;20015;-45
2022/06/01 11:54:33;;;;;;;9.32;8.40;;;;;;;;;;7397653;19;20015;-45
2022/06/01 11:57:02;;;;;;;9.05;7.78;;;;;;;;;;7391081;19;20016;-45
2022/06/01 11:59:36;;;;;;;9.05;8.07;;;;;;;;;;7391576;19;20018;-45
2022/06/01 12:02:06;;;;;;;11.35;8.57;;;;;;;;;;7392572;19;20014;-44
2022/06/01 12:04:54;;;;;;;10.48;8.20;;;;;;;;;;7396441;19;20026;-44
2022/06/01 12:07:32;;;;;;;9.82;7.95;;;;;;;;;;7390074;19;20381;-44
2022/06/01 12:10:02;;;;;;;9.60;8.07;;;;;;;;;;7399666;19;20043;-45
2022/06/01 12:12:48;;;;;;;10.40;7.72;;;;;;;;;;7399713;19;20327;-45
2022/06/01 12:15:19;;;;;;;9.23;8.02;;;;;;;;;;7398518;19;20014;-45
2022/06/01 12:18:08;;;;;;;10.30;8.68;;;;;;;;;;7396743;19;20406;-45
2022/06/01 12:20:48;;;;;;;10.18;8.98;;;;;;;;;;7401659;19;20766;-45
2022/06/01 12:29:15;;;;;;;8.27;7.47;;;;;;;;;;7399671;19;20486;-45
2022/06/01 12:32:08;;;;;;;8.90;7.80;;;;;;;;;;7398957;19;20672;-45
2022/06/01 12:34:40;;;;;;;4.82;3.90;;;;;;;;;;7402143;19;20013;-45
2022/06/01 12:37:10;;;;;;;3.88;2.38;;;;;;;;;;7396926;19;20025;-45
2022/06/01 12:39:44;;;;;;;3.00;2.10;;;;;;;;;;7399809;19;20022;-45
2022/06/01 12:42:17;;;;;;;3.97;2.40;;;;;;;;;;7398022;19;20020;-45
2022/06/01 12:44:47;;;;;;;4.35;2.20;;;;;;;;;;7399268;19;20066;-45
2022/06/01 12:47:23;;;;;;;4.93;2.13;;;;;;;;;;7396114;19;20011;-45
2022/06/01 12:49:52;;;;;;;2.85;1.63;;;;;;;;;;7400993;19;20021;-45
2022/06/01 12:52:22;;;;;;;3.20;1.80;;;;;;;;;;7397257;19;20387;-47
2022/06/01 12:54:58;;;;;;;1.45;1.00;;;;;;;;;;7398628;19;20024;-45
2022/06/01 12:57:31;;;;;;;2.60;1.30;;;;;;;;;;7394988;19;20018;-44
2022/06/01 13:00:00;;;;;;;3.90;1.55;;;;;;;;;;7397726;19;20070;-45
2022/06/01 13:02:30;;;;;;;8.68;3.05;;;;;;;;;;7400451;19;20017;-42
2022/06/01 13:04:59;;;;;;;6.82;2.03;;;;;;;;;;7399050;19;20017;-44
2022/06/01 13:07:30;;;;;;;4.82;2.75;;;;;;;;;;7398217;19;20019;-43
2022/06/01 13:10:00;;;;;;;5.10;2.20;;;;;;;;;;7405295;19;20025;-44
2022/06/01 13:12:33;;;;;;;6.40;2.47;;;;;;;;;;7399240;19;20010;-43
2022/06/01 13:15:12;;;;;;;7.78;2.10;;;;;;;;;;7402995;19;20087;-45
2022/06/01 13:17:51;;;;;;;44.22;4.63;;;;;;;;;;7397503;19;20029;-43
2022/06/01 13:20:22;;;;;;;7.28;3.38;;;;;;;;;;7400660;19;20055;-45
2022/06/01 13:22:53;;;;;;;3.53;2.03;;;;;;;;;;7398926;19;20039;-45
2022/06/01 13:25:26;;;;;;;3.45;1.92;;;;;;;;;;7398463;19;20065;-44
2022/06/01 13:27:57;;;;;;;2.88;1.60;;;;;;;;;;7397454;19;20527;-44
2022/06/01 13:30:27;;;;;;;3.27;1.93;;;;;;;;;;7409943;19;20034;-42
2022/06/01 13:32:57;;;;;;;4.00;1.88;;;;;;;;;;7409607;19;20025;-43
2022/06/01 13:35:34;;;;;;;3.28;1.73;;;;;;;;;;7407918;19;20048;-43
2022/06/01 13:38:04;;;;;;;2.72;2.17;;;;;;;;;;7407222;19;20050;-43
2022/06/01 13:40:34;;;;;;;4.05;2.38;;;;;;;;;;7408211;19;20010;-43
2022/06/01 13:43:07;;;;;;;2.05;1.70;;;;;;;;;;7406868;19;20010;-43
2022/06/01 13:45:42;;;;;;;2.30;1.80;;;;;;;;;;7404364;19;20078;-44
2022/06/01 13:48:17;;;;;;;5.03;1.85;;;;;;;;;;7399805;19;20482;-43
2022/06/01 13:50:46;;;;;;;2.63;1.63;;;;;;;;;;7400920;19;20017;-43
2022/06/01 13:53:20;;;;;;;1.70;1.10;;;;;;;;;;7399891;19;20021;-44
2022/06/01 13:55:57;;;;;;;2.88;1.60;;;;;;;;;;7402593;19;20052;-43
2022/06/01 13:58:33;;;;;;;1.85;1.40;;;;;;;;;;7396595;19;20014;-43
2022/06/01 14:01:10;;;;;;;2.80;1.98;;;;;;;;;;7396200;19;20033;-43
2022/06/01 14:03:43;;;;;;;5.82;2.22;;;;;;;;;;7396504;19;20074;-42
2022/06/01 14:06:13;;;;;;;3.35;1.70;;;;;;;;;;7394810;19;20083;-43
2022/06/01 14:08:52;;;;;;;2.25;1.65;;;;;;;;;;7397021;19;20029;-44
2022/06/01 14:11:24;;;;;;;3.03;1.55;;;;;;;;;;7400642;19;20054;-43
2022/06/01 14:13:55;;;;;;;1.92;1.58;;;;;;;;;;7398225;19;20050;-43
2022/06/01 14:16:24;;;;;;;2.00;1.60;;;;;;;;;;7396186;19;20017;-44
2022/06/01 14:18:54;;;;;;;3.78;2.20;;;;;;;;;;7398763;19;20446;-43
2022/06/01 14:21:22;;;;;;;2.80;1.75;;;;;;;;;;7398782;19;20015;-43
2022/06/01 14:23:51;;;;;;;2.38;1.60;;;;;;;;;;7397726;19;20010;-43
2022/06/01 14:29:03;;;;;;;3.65;2.22;;;;;;;;;;7394397;19;20025;-43
2022/06/01 14:31:32;;;;;;;3.50;1.92;;;;;;;;;;7394921;19;20018;-44
2022/06/01 14:34:00;;;;;;;2.88;2.13;;;;;;;;;;7394964;19;20014;-43
2022/06/01 14:36:31;;;;;;;4.25;2.28;;;;;;;;;;7394038;19;20014;-43
2022/06/01 14:39:00;;;;;;;4.60;2.72;;;;;;;;;;7398985;19;20014;-43
2022/06/01 14:41:31;;;;;;;3.72;2.90;;;;;;;;;;7395781;19;20470;-43
2022/06/01 14:44:03;;;;;;;3.65;2.90;;;;;;;;;;7393938;19;20011;-43
2022/06/01 14:46:32;;;;;;;12.45;2.53;;;;;;;;;;7393386;19;20527;-43
2022/06/01 14:49:00;;;;;;;3.45;2.10;;;;;;;;;;7395105;19;20029;-43
2022/06/01 14:51:33;;;;;;;4.20;1.80;;;;;;;;;;7396648;19;20011;-44
2022/06/01 14:54:02;;;;;;;2.63;1.83;;;;;;;;;;7395259;19;20017;-43
2022/06/01 14:56:31;;;;;;;2.30;1.90;;;;;;;;;;7393802;19;20267;-42
2022/06/01 14:59:01;;;;;;;2.42;2.15;;;;;;;;;;7395301;19;20026;-43
2022/06/01 15:01:34;;;;;;;5.20;2.30;;;;;;;;;;7396114;19;20040;-43
2022/06/01 15:04:03;;;;;;;3.20;2.08;;;;;;;;;;7394964;19;20497;-43
2022/06/01 15:06:32;;;;;;;2.92;2.30;;;;;;;;;;7397187;19;20044;-43
2022/06/01 15:09:00;;;;;;;9.40;3.40;;;;;;;;;;7401791;19;20041;-44
2022/06/01 15:11:29;;;;;;;6.53;2.75;;;;;;;;;;7394075;19;20025;-45
2022/06/01 15:13:58;;;;;;;4.32;3.08;;;;;;;;;;7396948;19;20015;-45
2022/06/01 15:16:26;;;;;;;5.38;3.00;;;;;;;;;;7395815;19;20023;-45
2022/06/01 15:18:58;;;;;;;3.83;3.20;;;;;;;;;;7396081;19;20014;-45
2022/06/01 15:21:27;;;;;;;6.72;3.75;;;;;;;;;;7394119;19;20014;-44
2022/06/01 15:23:55;;;;;;;5.13;3.85;;;;;;;;;;7393410;19;20014;-42
2022/06/01 15:26:25;;;;;;;4.80;4.32;;;;;;;;;;7395023;19;20022;-43
2022/06/01 15:28:54;;;;;;;8.10;4.68;;;;;;;;;;7394841;19;20503;-44
2022/06/01 15:39:30;;;;;;;;;;;;;;;;;;7399754;19;20010;-44